sensor_id;sensor_type;location;lat;lon;timestamp;P1;durP1;ratioP1;P2;durP2;ratioP2
24084;SDS011;12268;52.110;5.548;2022-12-18T00:01:49;54.30;;;21.30;;
24084;SDS011;12268;52.110;5.548;2022-12-18T00:04:20;51.63;;;19.05;;
24084;SDS011;12268;52.110;5.548;2022-12-18T00:06:47;47.80;;;18.95;;
24084;SDS011;12268;52.110;5.548;2022-12-18T00:09:13;51.70;;;18.35;;
24084;SDS011;12268;52.110;5.548;2022-12-18T00:11:38;50.88;;;20.85;;
24084;SDS011;12268;52.110;5.548;2022-12-18T00:14:04;56.88;;;19.73;;
24084;SDS011;12268;52.110;5.548;2022-12-18T00:16:29;50.35;;;19.75;;
24084;SDS011;12268;52.110;5.548;2022-12-18T00:18:58;53.97;;;20.48;;
24084;SDS011;12268;52.110;5.548;2022-12-18T00:21:24;44.65;;;19.38;;
24084;SDS011;12268;52.110;5.548;2022-12-18T00:23:51;53.25;;;20.67;;
24084;SDS011;12268;52.110;5.548;2022-12-18T00:28:43;55.75;;;20.45;;
24084;SDS011;12268;52.110;5.548;2022-12-18T00:31:11;48.55;;;18.73;;
24084;SDS011;12268;52.110;5.548;2022-12-18T00:33:39;52.42;;;20.95;;
24084;SDS011;12268;52.110;5.548;2022-12-18T00:36:05;60.00;;;21.02;;
24084;SDS011;12268;52.110;5.548;2022-12-18T00:38:34;53.05;;;20.50;;
24084;SDS011;12268;52.110;5.548;2022-12-18T00:41:00;59.03;;;20.90;;
24084;SDS011;12268;52.110;5.548;2022-12-18T00:43:25;56.72;;;21.50;;
24084;SDS011;12268;52.110;5.548;2022-12-18T00:45:51;58.85;;;20.40;;
24084;SDS011;12268;52.110;5.548;2022-12-18T00:48:16;60.30;;;22.05;;
24084;SDS011;12268;52.110;5.548;2022-12-18T00:50:42;69.90;;;22.45;;
24084;SDS011;12268;52.110;5.548;2022-12-18T00:53:09;57.78;;;22.40;;
24084;SDS011;12268;52.110;5.548;2022-12-18T00:55:34;60.47;;;21.40;;
24084;SDS011;12268;52.110;5.548;2022-12-18T00:58:01;58.67;;;22.50;;
24084;SDS011;12268;52.110;5.548;2022-12-18T01:00:27;54.60;;;20.83;;
24084;SDS011;12268;52.110;5.548;2022-12-18T01:02:52;40.65;;;17.00;;
24084;SDS011;12268;52.110;5.548;2022-12-18T01:05:18;60.08;;;21.83;;
24084;SDS011;12268;52.110;5.548;2022-12-18T01:07:43;63.95;;;22.40;;
24084;SDS011;12268;52.110;5.548;2022-12-18T01:10:09;61.55;;;22.35;;
24084;SDS011;12268;52.110;5.548;2022-12-18T01:12:37;60.45;;;21.48;;
24084;SDS011;12268;52.110;5.548;2022-12-18T01:15:04;58.25;;;21.65;;
24084;SDS011;12268;52.110;5.548;2022-12-18T01:17:31;65.75;;;21.60;;
24084;SDS011;12268;52.110;5.548;2022-12-18T01:19:57;52.10;;;19.30;;
24084;SDS011;12268;52.110;5.548;2022-12-18T01:22:22;59.03;;;21.48;;
24084;SDS011;12268;52.110;5.548;2022-12-18T01:24:48;58.90;;;19.73;;
24084;SDS011;12268;52.110;5.548;2022-12-18T01:27:13;60.80;;;20.17;;
24084;SDS011;12268;52.110;5.548;2022-12-18T01:29:39;58.75;;;20.58;;
24084;SDS011;12268;52.110;5.548;2022-12-18T01:32:04;59.65;;;20.52;;
24084;SDS011;12268;52.110;5.548;2022-12-18T01:34:30;48.05;;;19.98;;
24084;SDS011;12268;52.110;5.548;2022-12-18T01:36:56;49.42;;;20.25;;
24084;SDS011;12268;52.110;5.548;2022-12-18T01:39:22;42.65;;;18.52;;
24084;SDS011;12268;52.110;5.548;2022-12-18T01:41:47;54.53;;;20.13;;
24084;SDS011;12268;52.110;5.548;2022-12-18T01:47:25;50.10;;;19.20;;
24084;SDS011;12268;52.110;5.548;2022-12-18T01:49:51;59.40;;;20.38;;
24084;SDS011;12268;52.110;5.548;2022-12-18T01:52:17;49.53;;;19.33;;
24084;SDS011;12268;52.110;5.548;2022-12-18T01:54:45;51.17;;;19.92;;
24084;SDS011;12268;52.110;5.548;2022-12-18T01:57:11;48.95;;;20.15;;
24084;SDS011;12268;52.110;5.548;2022-12-18T01:59:37;49.97;;;18.58;;
24084;SDS011;12268;52.110;5.548;2022-12-18T02:02:03;46.22;;;18.17;;
24084;SDS011;12268;52.110;5.548;2022-12-18T02:04:29;48.55;;;17.92;;
24084;SDS011;12268;52.110;5.548;2022-12-18T02:06:58;51.25;;;20.55;;
24084;SDS011;12268;52.110;5.548;2022-12-18T02:09:31;54.38;;;19.67;;
24084;SDS011;12268;52.110;5.548;2022-12-18T02:12:05;44.47;;;18.13;;
24084;SDS011;12268;52.110;5.548;2022-12-18T02:17:21;46.83;;;19.38;;
24084;SDS011;12268;52.110;5.548;2022-12-18T02:25:42;43.40;;;17.17;;
24084;SDS011;12268;52.110;5.548;2022-12-18T02:28:28;45.53;;;17.02;;
24084;SDS011;12268;52.110;5.548;2022-12-18T02:30:57;39.65;;;17.60;;
24084;SDS011;12268;52.110;5.548;2022-12-18T02:33:27;50.95;;;19.85;;
24084;SDS011;12268;52.110;5.548;2022-12-18T02:35:55;42.05;;;18.10;;
24084;SDS011;12268;52.110;5.548;2022-12-18T02:38:23;39.80;;;18.45;;
24084;SDS011;12268;52.110;5.548;2022-12-18T02:40:49;45.03;;;17.73;;
24084;SDS011;12268;52.110;5.548;2022-12-18T02:43:17;44.45;;;17.98;;
24084;SDS011;12268;52.110;5.548;2022-12-18T02:45:50;44.63;;;18.17;;
24084;SDS011;12268;52.110;5.548;2022-12-18T02:48:20;40.95;;;17.77;;
24084;SDS011;12268;52.110;5.548;2022-12-18T02:53:50;29.95;;;15.45;;
24084;SDS011;12268;52.110;5.548;2022-12-18T02:56:21;45.75;;;18.35;;
24084;SDS011;12268;52.110;5.548;2022-12-18T02:59:02;45.25;;;17.90;;
24084;SDS011;12268;52.110;5.548;2022-12-18T03:01:35;44.40;;;18.25;;
24084;SDS011;12268;52.110;5.548;2022-12-18T03:04:14;45.50;;;19.80;;
24084;SDS011;12268;52.110;5.548;2022-12-18T03:06:47;42.95;;;18.25;;
24084;SDS011;12268;52.110;5.548;2022-12-18T03:12:16;38.70;;;16.15;;
24084;SDS011;12268;52.110;5.548;2022-12-18T03:14:56;45.58;;;19.30;;
24084;SDS011;12268;52.110;5.548;2022-12-18T03:17:46;43.60;;;18.20;;
24084;SDS011;12268;52.110;5.548;2022-12-18T03:20:17;40.03;;;17.23;;
24084;SDS011;12268;52.110;5.548;2022-12-18T03:22:46;42.58;;;18.63;;
24084;SDS011;12268;52.110;5.548;2022-12-18T03:25:16;40.00;;;16.93;;
24084;SDS011;12268;52.110;5.548;2022-12-18T03:27:45;38.75;;;17.38;;
24084;SDS011;12268;52.110;5.548;2022-12-18T03:30:13;49.25;;;19.33;;
24084;SDS011;12268;52.110;5.548;2022-12-18T03:32:48;40.03;;;16.75;;
24084;SDS011;12268;52.110;5.548;2022-12-18T03:35:18;37.25;;;16.95;;
24084;SDS011;12268;52.110;5.548;2022-12-18T03:37:47;41.17;;;18.17;;
24084;SDS011;12268;52.110;5.548;2022-12-18T03:40:12;38.60;;;16.05;;
24084;SDS011;12268;52.110;5.548;2022-12-18T03:45:20;38.97;;;16.90;;
24084;SDS011;12268;52.110;5.548;2022-12-18T03:50:40;38.30;;;15.73;;
24084;SDS011;12268;52.110;5.548;2022-12-18T03:53:57;38.78;;;17.00;;
24084;SDS011;12268;52.110;5.548;2022-12-18T03:56:08;36.50;;;15.35;;
24084;SDS011;12268;52.110;5.548;2022-12-18T03:58:36;31.27;;;16.20;;
24084;SDS011;12268;52.110;5.548;2022-12-18T04:01:05;30.35;;;15.75;;
24084;SDS011;12268;52.110;5.548;2022-12-18T04:03:33;37.88;;;17.02;;
24084;SDS011;12268;52.110;5.548;2022-12-18T04:06:00;42.95;;;16.17;;
24084;SDS011;12268;52.110;5.548;2022-12-18T04:08:27;35.28;;;16.58;;
24084;SDS011;12268;52.110;5.548;2022-12-18T04:10:53;30.10;;;15.23;;
24084;SDS011;12268;52.110;5.548;2022-12-18T04:13:23;34.78;;;16.05;;
24084;SDS011;12268;52.110;5.548;2022-12-18T04:15:52;29.38;;;16.30;;
24084;SDS011;12268;52.110;5.548;2022-12-18T04:18:17;32.65;;;15.18;;
24084;SDS011;12268;52.110;5.548;2022-12-18T04:20:43;32.70;;;14.05;;
24084;SDS011;12268;52.110;5.548;2022-12-18T04:23:08;31.23;;;15.88;;
24084;SDS011;12268;52.110;5.548;2022-12-18T04:25:34;33.40;;;15.10;;
24084;SDS011;12268;52.110;5.548;2022-12-18T04:27:59;31.77;;;14.55;;
24084;SDS011;12268;52.110;5.548;2022-12-18T04:30:25;33.42;;;16.08;;
24084;SDS011;12268;52.110;5.548;2022-12-18T04:32:50;30.25;;;15.70;;
24084;SDS011;12268;52.110;5.548;2022-12-18T04:35:16;30.73;;;14.63;;
24084;SDS011;12268;52.110;5.548;2022-12-18T04:37:41;36.45;;;16.40;;
24084;SDS011;12268;52.110;5.548;2022-12-18T04:40:07;33.80;;;14.38;;
24084;SDS011;12268;52.110;5.548;2022-12-18T04:42:33;29.15;;;14.65;;
24084;SDS011;12268;52.110;5.548;2022-12-18T04:44:58;31.48;;;13.93;;
24084;SDS011;12268;52.110;5.548;2022-12-18T04:47:24;30.13;;;14.45;;
24084;SDS011;12268;52.110;5.548;2022-12-18T04:49:49;28.98;;;14.32;;
24084;SDS011;12268;52.110;5.548;2022-12-18T04:52:15;31.48;;;14.32;;
24084;SDS011;12268;52.110;5.548;2022-12-18T04:54:41;27.17;;;13.73;;
24084;SDS011;12268;52.110;5.548;2022-12-18T04:57:06;24.70;;;13.07;;
24084;SDS011;12268;52.110;5.548;2022-12-18T04:59:32;30.55;;;14.70;;
24084;SDS011;12268;52.110;5.548;2022-12-18T05:01:57;28.65;;;14.38;;
24084;SDS011;12268;52.110;5.548;2022-12-18T05:04:23;27.75;;;14.18;;
24084;SDS011;12268;52.110;5.548;2022-12-18T05:06:48;21.60;;;12.40;;
24084;SDS011;12268;52.110;5.548;2022-12-18T05:09:14;26.05;;;14.13;;
24084;SDS011;12268;52.110;5.548;2022-12-18T05:11:39;23.98;;;13.35;;
24084;SDS011;12268;52.110;5.548;2022-12-18T05:14:05;25.48;;;13.05;;
24084;SDS011;12268;52.110;5.548;2022-12-18T05:16:30;26.05;;;12.65;;
24084;SDS011;12268;52.110;5.548;2022-12-18T05:18:56;27.15;;;12.77;;
24084;SDS011;12268;52.110;5.548;2022-12-18T05:21:21;20.30;;;11.15;;
24084;SDS011;12268;52.110;5.548;2022-12-18T05:23:47;23.25;;;12.20;;
24084;SDS011;12268;52.110;5.548;2022-12-18T05:26:15;27.45;;;12.73;;
24084;SDS011;12268;52.110;5.548;2022-12-18T05:28:42;25.55;;;14.02;;
24084;SDS011;12268;52.110;5.548;2022-12-18T05:31:08;25.75;;;12.73;;
24084;SDS011;12268;52.110;5.548;2022-12-18T05:33:34;22.17;;;11.65;;
24084;SDS011;12268;52.110;5.548;2022-12-18T05:36:01;27.20;;;12.70;;
24084;SDS011;12268;52.110;5.548;2022-12-18T05:38:28;25.05;;;12.30;;
24084;SDS011;12268;52.110;5.548;2022-12-18T05:40:55;19.88;;;12.25;;
24084;SDS011;12268;52.110;5.548;2022-12-18T05:43:21;23.92;;;12.93;;
24084;SDS011;12268;52.110;5.548;2022-12-18T05:45:48;25.38;;;14.20;;
24084;SDS011;12268;52.110;5.548;2022-12-18T05:48:14;25.50;;;14.05;;
24084;SDS011;12268;52.110;5.548;2022-12-18T05:50:41;25.90;;;13.15;;
24084;SDS011;12268;52.110;5.548;2022-12-18T05:53:08;25.13;;;12.50;;
24084;SDS011;12268;52.110;5.548;2022-12-18T05:55:34;26.20;;;12.27;;
24084;SDS011;12268;52.110;5.548;2022-12-18T05:58:01;24.33;;;13.02;;
24084;SDS011;12268;52.110;5.548;2022-12-18T06:00:27;26.08;;;12.45;;
24084;SDS011;12268;52.110;5.548;2022-12-18T06:02:53;25.08;;;13.07;;
24084;SDS011;12268;52.110;5.548;2022-12-18T06:05:19;25.13;;;12.52;;
24084;SDS011;12268;52.110;5.548;2022-12-18T06:07:44;21.13;;;11.57;;
24084;SDS011;12268;52.110;5.548;2022-12-18T06:10:10;25.17;;;11.90;;
24084;SDS011;12268;52.110;5.548;2022-12-18T06:12:36;24.73;;;13.38;;
24084;SDS011;12268;52.110;5.548;2022-12-18T06:15:02;23.92;;;11.90;;
24084;SDS011;12268;52.110;5.548;2022-12-18T06:17:31;26.45;;;12.40;;
24084;SDS011;12268;52.110;5.548;2022-12-18T06:19:57;27.23;;;12.30;;
24084;SDS011;12268;52.110;5.548;2022-12-18T06:22:23;23.20;;;12.57;;
24084;SDS011;12268;52.110;5.548;2022-12-18T06:24:49;25.92;;;12.88;;
24084;SDS011;12268;52.110;5.548;2022-12-18T06:27:15;21.27;;;12.40;;
24084;SDS011;12268;52.110;5.548;2022-12-18T06:29:41;25.05;;;13.57;;
24084;SDS011;12268;52.110;5.548;2022-12-18T06:32:06;33.35;;;14.77;;
24084;SDS011;12268;52.110;5.548;2022-12-18T06:34:32;25.42;;;12.60;;
24084;SDS011;12268;52.110;5.548;2022-12-18T06:36:58;21.30;;;12.57;;
24084;SDS011;12268;52.110;5.548;2022-12-18T06:39:24;29.90;;;15.13;;
24084;SDS011;12268;52.110;5.548;2022-12-18T06:41:52;22.10;;;13.90;;
24084;SDS011;12268;52.110;5.548;2022-12-18T06:44:17;20.63;;;12.55;;
24084;SDS011;12268;52.110;5.548;2022-12-18T06:46:43;21.13;;;13.15;;
24084;SDS011;12268;52.110;5.548;2022-12-18T06:49:09;16.65;;;11.82;;
24084;SDS011;12268;52.110;5.548;2022-12-18T06:51:34;18.73;;;12.43;;
24084;SDS011;12268;52.110;5.548;2022-12-18T06:54:00;16.38;;;10.23;;
24084;SDS011;12268;52.110;5.548;2022-12-18T06:56:26;21.85;;;13.45;;
24084;SDS011;12268;52.110;5.548;2022-12-18T06:58:52;37.35;;;13.63;;
24084;SDS011;12268;52.110;5.548;2022-12-18T07:01:17;17.42;;;11.15;;
24084;SDS011;12268;52.110;5.548;2022-12-18T07:03:43;20.20;;;11.75;;
24084;SDS011;12268;52.110;5.548;2022-12-18T07:06:16;20.48;;;11.73;;
24084;SDS011;12268;52.110;5.548;2022-12-18T07:08:44;18.02;;;11.10;;
24084;SDS011;12268;52.110;5.548;2022-12-18T07:11:10;24.58;;;11.85;;
24084;SDS011;12268;52.110;5.548;2022-12-18T07:13:36;18.17;;;11.75;;
24084;SDS011;12268;52.110;5.548;2022-12-18T07:16:08;25.38;;;11.55;;
24084;SDS011;12268;52.110;5.548;2022-12-18T07:18:41;16.48;;;10.13;;
24084;SDS011;12268;52.110;5.548;2022-12-18T07:21:08;19.70;;;11.80;;
24084;SDS011;12268;52.110;5.548;2022-12-18T07:23:37;19.25;;;12.15;;
24084;SDS011;12268;52.110;5.548;2022-12-18T07:28:33;19.70;;;11.35;;
24084;SDS011;12268;52.110;5.548;2022-12-18T07:31:03;21.45;;;11.57;;
24084;SDS011;12268;52.110;5.548;2022-12-18T07:33:31;21.42;;;13.32;;
24084;SDS011;12268;52.110;5.548;2022-12-18T07:36:01;28.00;;;14.40;;
24084;SDS011;12268;52.110;5.548;2022-12-18T07:38:31;22.73;;;13.88;;
24084;SDS011;12268;52.110;5.548;2022-12-18T07:41:03;22.38;;;12.10;;
24084;SDS011;12268;52.110;5.548;2022-12-18T07:43:31;20.35;;;10.88;;
24084;SDS011;12268;52.110;5.548;2022-12-18T07:45:57;24.63;;;13.23;;
24084;SDS011;12268;52.110;5.548;2022-12-18T07:48:22;18.85;;;13.18;;
24084;SDS011;12268;52.110;5.548;2022-12-18T07:50:48;23.08;;;13.25;;
24084;SDS011;12268;52.110;5.548;2022-12-18T07:53:13;20.05;;;12.88;;
24084;SDS011;12268;52.110;5.548;2022-12-18T07:55:39;23.42;;;12.85;;
24084;SDS011;12268;52.110;5.548;2022-12-18T07:58:08;19.92;;;11.18;;
24084;SDS011;12268;52.110;5.548;2022-12-18T08:00:34;28.13;;;13.60;;
24084;SDS011;12268;52.110;5.548;2022-12-18T08:03:00;25.55;;;12.32;;
24084;SDS011;12268;52.110;5.548;2022-12-18T08:05:26;25.75;;;11.68;;
24084;SDS011;12268;52.110;5.548;2022-12-18T08:07:53;26.55;;;14.07;;
24084;SDS011;12268;52.110;5.548;2022-12-18T08:10:19;23.92;;;13.82;;
24084;SDS011;12268;52.110;5.548;2022-12-18T08:12:45;24.15;;;13.32;;
24084;SDS011;12268;52.110;5.548;2022-12-18T08:15:14;19.70;;;11.52;;
24084;SDS011;12268;52.110;5.548;2022-12-18T08:17:39;26.25;;;13.65;;
24084;SDS011;12268;52.110;5.548;2022-12-18T08:20:05;26.90;;;13.35;;
24084;SDS011;12268;52.110;5.548;2022-12-18T08:22:33;28.58;;;13.90;;
24084;SDS011;12268;52.110;5.548;2022-12-18T08:25:02;26.52;;;13.15;;
24084;SDS011;12268;52.110;5.548;2022-12-18T08:27:28;22.77;;;13.45;;
24084;SDS011;12268;52.110;5.548;2022-12-18T08:29:54;28.90;;;13.77;;
24084;SDS011;12268;52.110;5.548;2022-12-18T08:32:20;24.50;;;13.25;;
24084;SDS011;12268;52.110;5.548;2022-12-18T08:34:45;23.95;;;12.00;;
24084;SDS011;12268;52.110;5.548;2022-12-18T08:37:11;24.92;;;14.48;;
24084;SDS011;12268;52.110;5.548;2022-12-18T08:39:36;25.23;;;12.43;;
24084;SDS011;12268;52.110;5.548;2022-12-18T08:42:02;22.67;;;12.23;;
24084;SDS011;12268;52.110;5.548;2022-12-18T08:44:46;24.05;;;13.07;;
24084;SDS011;12268;52.110;5.548;2022-12-18T08:47:12;22.50;;;12.80;;
24084;SDS011;12268;52.110;5.548;2022-12-18T08:49:37;22.92;;;12.57;;
24084;SDS011;12268;52.110;5.548;2022-12-18T08:52:03;22.30;;;12.10;;
24084;SDS011;12268;52.110;5.548;2022-12-18T08:54:28;25.08;;;11.80;;
24084;SDS011;12268;52.110;5.548;2022-12-18T08:56:54;20.25;;;11.45;;
24084;SDS011;12268;52.110;5.548;2022-12-18T08:59:20;22.95;;;11.43;;
24084;SDS011;12268;52.110;5.548;2022-12-18T09:01:46;22.98;;;12.43;;
24084;SDS011;12268;52.110;5.548;2022-12-18T09:04:12;22.27;;;12.02;;
24084;SDS011;12268;52.110;5.548;2022-12-18T09:06:39;23.05;;;11.43;;
24084;SDS011;12268;52.110;5.548;2022-12-18T09:09:05;22.00;;;12.50;;
24084;SDS011;12268;52.110;5.548;2022-12-18T09:11:31;19.75;;;11.20;;
24084;SDS011;12268;52.110;5.548;2022-12-18T09:13:58;21.77;;;11.93;;
24084;SDS011;12268;52.110;5.548;2022-12-18T09:16:25;21.23;;;11.98;;
24084;SDS011;12268;52.110;5.548;2022-12-18T09:18:52;21.95;;;11.48;;
24084;SDS011;12268;52.110;5.548;2022-12-18T09:21:24;22.85;;;11.40;;
24084;SDS011;12268;52.110;5.548;2022-12-18T09:23:51;22.23;;;11.38;;
24084;SDS011;12268;52.110;5.548;2022-12-18T09:26:18;21.25;;;11.80;;
24084;SDS011;12268;52.110;5.548;2022-12-18T09:28:45;22.35;;;11.65;;
24084;SDS011;12268;52.110;5.548;2022-12-18T09:31:11;24.17;;;11.55;;
24084;SDS011;12268;52.110;5.548;2022-12-18T09:33:37;19.27;;;10.70;;
24084;SDS011;12268;52.110;5.548;2022-12-18T09:36:04;19.60;;;10.18;;
24084;SDS011;12268;52.110;5.548;2022-12-18T09:38:31;20.88;;;11.23;;
24084;SDS011;12268;52.110;5.548;2022-12-18T09:40:59;18.92;;;10.55;;
24084;SDS011;12268;52.110;5.548;2022-12-18T09:43:33;21.85;;;11.30;;
24084;SDS011;12268;52.110;5.548;2022-12-18T09:46:06;17.58;;;9.55;;
24084;SDS011;12268;52.110;5.548;2022-12-18T09:48:41;21.38;;;10.10;;
24084;SDS011;12268;52.110;5.548;2022-12-18T09:51:15;16.58;;;9.75;;
24084;SDS011;12268;52.110;5.548;2022-12-18T09:54:07;19.23;;;10.15;;
24084;SDS011;12268;52.110;5.548;2022-12-18T09:56:40;18.10;;;10.30;;
24084;SDS011;12268;52.110;5.548;2022-12-18T09:59:13;17.40;;;9.07;;
24084;SDS011;12268;52.110;5.548;2022-12-18T10:01:57;17.58;;;9.10;;
24084;SDS011;12268;52.110;5.548;2022-12-18T10:04:23;19.02;;;9.10;;
24084;SDS011;12268;52.110;5.548;2022-12-18T10:06:58;15.27;;;9.50;;
24084;SDS011;12268;52.110;5.548;2022-12-18T10:12:35;16.40;;;9.75;;
24084;SDS011;12268;52.110;5.548;2022-12-18T10:15:14;15.35;;;9.10;;
24084;SDS011;12268;52.110;5.548;2022-12-18T10:23:17;16.83;;;8.70;;
24084;SDS011;12268;52.110;5.548;2022-12-18T10:26:08;13.25;;;7.72;;
24084;SDS011;12268;52.110;5.548;2022-12-18T10:28:36;15.27;;;8.27;;
24084;SDS011;12268;52.110;5.548;2022-12-18T10:31:07;18.55;;;7.80;;
24084;SDS011;12268;52.110;5.548;2022-12-18T10:33:42;17.08;;;8.50;;
24084;SDS011;12268;52.110;5.548;2022-12-18T10:36:08;17.27;;;8.27;;
24084;SDS011;12268;52.110;5.548;2022-12-18T10:38:33;15.18;;;8.32;;
24084;SDS011;12268;52.110;5.548;2022-12-18T10:43:30;15.50;;;7.93;;
24084;SDS011;12268;52.110;5.548;2022-12-18T10:48:54;14.98;;;7.20;;
24084;SDS011;12268;52.110;5.548;2022-12-18T10:51:29;14.30;;;7.60;;
24084;SDS011;12268;52.110;5.548;2022-12-18T10:56:42;15.30;;;7.47;;
24084;SDS011;12268;52.110;5.548;2022-12-18T10:59:08;16.58;;;8.25;;
24084;SDS011;12268;52.110;5.548;2022-12-18T11:04:29;14.60;;;7.88;;
24084;SDS011;12268;52.110;5.548;2022-12-18T11:07:04;14.18;;;7.78;;
24084;SDS011;12268;52.110;5.548;2022-12-18T11:09:35;15.02;;;8.02;;
24084;SDS011;12268;52.110;5.548;2022-12-18T11:12:03;14.63;;;8.45;;
24084;SDS011;12268;52.110;5.548;2022-12-18T11:14:43;21.13;;;8.80;;
24084;SDS011;12268;52.110;5.548;2022-12-18T11:17:25;17.65;;;9.07;;
24084;SDS011;12268;52.110;5.548;2022-12-18T11:19:57;17.17;;;7.78;;
24084;SDS011;12268;52.110;5.548;2022-12-18T11:25:02;18.58;;;8.50;;
24084;SDS011;12268;52.110;5.548;2022-12-18T11:27:51;15.57;;;8.07;;
24084;SDS011;12268;52.110;5.548;2022-12-18T11:32:44;15.98;;;8.10;;
24084;SDS011;12268;52.110;5.548;2022-12-18T11:35:18;12.23;;;7.55;;
24084;SDS011;12268;52.110;5.548;2022-12-18T11:37:53;14.77;;;8.23;;
24084;SDS011;12268;52.110;5.548;2022-12-18T11:40:30;17.17;;;7.93;;
24084;SDS011;12268;52.110;5.548;2022-12-18T11:43:11;14.02;;;7.97;;
24084;SDS011;12268;52.110;5.548;2022-12-18T11:45:42;15.95;;;7.75;;
24084;SDS011;12268;52.110;5.548;2022-12-18T11:48:26;14.57;;;7.72;;
24084;SDS011;12268;52.110;5.548;2022-12-18T11:50:58;13.75;;;7.85;;
24084;SDS011;12268;52.110;5.548;2022-12-18T11:53:26;15.38;;;8.23;;
24084;SDS011;12268;52.110;5.548;2022-12-18T11:56:12;16.58;;;8.57;;
24084;SDS011;12268;52.110;5.548;2022-12-18T11:59:13;15.23;;;8.43;;
24084;SDS011;12268;52.110;5.548;2022-12-18T12:02:11;16.80;;;8.38;;
24084;SDS011;12268;52.110;5.548;2022-12-18T12:23:21;15.27;;;8.00;;
24084;SDS011;12268;52.110;5.548;2022-12-18T12:26:03;15.38;;;8.35;;
24084;SDS011;12268;52.110;5.548;2022-12-18T12:36:52;15.75;;;8.35;;
24084;SDS011;12268;52.110;5.548;2022-12-18T12:39:39;17.55;;;8.93;;
24084;SDS011;12268;52.110;5.548;2022-12-18T12:45:05;18.17;;;8.95;;
24084;SDS011;12268;52.110;5.548;2022-12-18T12:47:33;18.40;;;8.77;;
24084;SDS011;12268;52.110;5.548;2022-12-18T12:50:05;15.88;;;8.07;;
24084;SDS011;12268;52.110;5.548;2022-12-18T12:52:45;17.20;;;8.60;;
24084;SDS011;12268;52.110;5.548;2022-12-18T12:55:21;16.73;;;9.55;;
24084;SDS011;12268;52.110;5.548;2022-12-18T12:58:14;14.60;;;8.60;;
24084;SDS011;12268;52.110;5.548;2022-12-18T13:01:12;17.45;;;8.60;;
24084;SDS011;12268;52.110;5.548;2022-12-18T13:03:48;17.70;;;9.00;;
24084;SDS011;12268;52.110;5.548;2022-12-18T13:09:02;17.23;;;8.18;;
24084;SDS011;12268;52.110;5.548;2022-12-18T13:14:23;17.85;;;8.48;;
24084;SDS011;12268;52.110;5.548;2022-12-18T13:17:13;14.52;;;8.63;;
24084;SDS011;12268;52.110;5.548;2022-12-18T13:19:42;17.70;;;8.77;;
24084;SDS011;12268;52.110;5.548;2022-12-18T13:22:22;20.80;;;8.80;;
24084;SDS011;12268;52.110;5.548;2022-12-18T13:24:54;15.95;;;8.35;;
24084;SDS011;12268;52.110;5.548;2022-12-18T13:40:56;17.80;;;8.93;;
24084;SDS011;12268;52.110;5.548;2022-12-18T13:43:27;19.33;;;9.33;;
24084;SDS011;12268;52.110;5.548;2022-12-18T13:48:51;20.02;;;8.98;;
24084;SDS011;12268;52.110;5.548;2022-12-18T13:51:18;20.88;;;9.52;;
24084;SDS011;12268;52.110;5.548;2022-12-18T13:53:56;18.52;;;9.13;;
24084;SDS011;12268;52.110;5.548;2022-12-18T13:56:25;18.13;;;8.15;;
24084;SDS011;12268;52.110;5.548;2022-12-18T14:04:19;16.25;;;8.38;;
24084;SDS011;12268;52.110;5.548;2022-12-18T14:06:47;18.30;;;8.75;;
24084;SDS011;12268;52.110;5.548;2022-12-18T14:09:17;19.75;;;9.75;;
24084;SDS011;12268;52.110;5.548;2022-12-18T14:11:49;20.13;;;9.13;;
24084;SDS011;12268;52.110;5.548;2022-12-18T14:14:18;19.42;;;9.77;;
24084;SDS011;12268;52.110;5.548;2022-12-18T14:16:45;18.10;;;8.80;;
24084;SDS011;12268;52.110;5.548;2022-12-18T14:19:13;17.73;;;8.98;;
24084;SDS011;12268;52.110;5.548;2022-12-18T14:21:45;16.60;;;8.85;;
24084;SDS011;12268;52.110;5.548;2022-12-18T14:26:43;16.30;;;8.40;;
24084;SDS011;12268;52.110;5.548;2022-12-18T14:29:19;15.73;;;8.25;;
24084;SDS011;12268;52.110;5.548;2022-12-18T14:32:06;19.58;;;9.20;;
24084;SDS011;12268;52.110;5.548;2022-12-18T14:36:59;18.45;;;8.55;;
24084;SDS011;12268;52.110;5.548;2022-12-18T14:39:25;16.90;;;8.63;;
24084;SDS011;12268;52.110;5.548;2022-12-18T14:41:51;15.68;;;8.75;;
24084;SDS011;12268;52.110;5.548;2022-12-18T14:44:17;16.60;;;8.27;;
24084;SDS011;12268;52.110;5.548;2022-12-18T14:46:43;19.30;;;9.77;;
24084;SDS011;12268;52.110;5.548;2022-12-18T14:52:03;19.75;;;9.68;;
24084;SDS011;12268;52.110;5.548;2022-12-18T14:54:31;16.67;;;8.68;;
24084;SDS011;12268;52.110;5.548;2022-12-18T14:57:04;16.15;;;8.90;;
24084;SDS011;12268;52.110;5.548;2022-12-18T14:59:45;18.40;;;9.57;;
24084;SDS011;12268;52.110;5.548;2022-12-18T15:02:18;18.25;;;9.10;;
24084;SDS011;12268;52.110;5.548;2022-12-18T15:05:00;21.52;;;8.93;;
24084;SDS011;12268;52.110;5.548;2022-12-18T15:07:40;17.63;;;9.32;;
24084;SDS011;12268;52.110;5.548;2022-12-18T15:12:43;19.35;;;10.40;;
24084;SDS011;12268;52.110;5.548;2022-12-18T15:18:05;19.17;;;9.77;;
24084;SDS011;12268;52.110;5.548;2022-12-18T15:25:49;16.30;;;9.32;;
24084;SDS011;12268;52.110;5.548;2022-12-18T15:28:32;17.00;;;8.43;;
24084;SDS011;12268;52.110;5.548;2022-12-18T15:31:03;17.02;;;9.38;;
24084;SDS011;12268;52.110;5.548;2022-12-18T15:33:31;20.63;;;10.10;;
24084;SDS011;12268;52.110;5.548;2022-12-18T15:36:05;21.30;;;10.30;;
24084;SDS011;12268;52.110;5.548;2022-12-18T15:38:35;19.42;;;10.60;;
24084;SDS011;12268;52.110;5.548;2022-12-18T15:41:01;19.83;;;10.10;;
24084;SDS011;12268;52.110;5.548;2022-12-18T15:43:27;17.70;;;9.30;;
24084;SDS011;12268;52.110;5.548;2022-12-18T15:46:07;22.40;;;10.18;;
24084;SDS011;12268;52.110;5.548;2022-12-18T15:48:40;18.45;;;9.60;;
24084;SDS011;12268;52.110;5.548;2022-12-18T15:51:56;22.10;;;10.80;;
24084;SDS011;12268;52.110;5.548;2022-12-18T15:54:00;19.10;;;9.50;;
24084;SDS011;12268;52.110;5.548;2022-12-18T15:56:28;24.55;;;10.73;;
24084;SDS011;12268;52.110;5.548;2022-12-18T15:59:14;20.48;;;9.98;;
24084;SDS011;12268;52.110;5.548;2022-12-18T16:01:41;19.58;;;10.20;;
24084;SDS011;12268;52.110;5.548;2022-12-18T16:04:13;22.00;;;10.77;;
24084;SDS011;12268;52.110;5.548;2022-12-18T16:06:40;19.90;;;10.17;;
24084;SDS011;12268;52.110;5.548;2022-12-18T16:09:06;21.58;;;10.15;;
24084;SDS011;12268;52.110;5.548;2022-12-18T16:11:33;19.65;;;9.60;;
24084;SDS011;12268;52.110;5.548;2022-12-18T16:14:21;21.52;;;9.95;;
24084;SDS011;12268;52.110;5.548;2022-12-18T16:16:49;19.23;;;9.52;;
24084;SDS011;12268;52.110;5.548;2022-12-18T16:19:17;22.63;;;11.23;;
24084;SDS011;12268;52.110;5.548;2022-12-18T16:21:43;20.90;;;10.50;;
24084;SDS011;12268;52.110;5.548;2022-12-18T16:24:15;21.90;;;9.82;;
24084;SDS011;12268;52.110;5.548;2022-12-18T16:26:43;27.08;;;10.60;;
24084;SDS011;12268;52.110;5.548;2022-12-18T16:29:09;20.50;;;10.27;;
24084;SDS011;12268;52.110;5.548;2022-12-18T16:31:35;19.65;;;10.57;;
24084;SDS011;12268;52.110;5.548;2022-12-18T16:36:47;20.90;;;10.32;;
24084;SDS011;12268;52.110;5.548;2022-12-18T16:39:16;25.50;;;11.80;;
24084;SDS011;12268;52.110;5.548;2022-12-18T16:41:42;22.65;;;11.50;;
24084;SDS011;12268;52.110;5.548;2022-12-18T16:44:08;23.55;;;11.60;;
24084;SDS011;12268;52.110;5.548;2022-12-18T16:46:34;21.08;;;11.43;;
24084;SDS011;12268;52.110;5.548;2022-12-18T16:49:00;22.13;;;10.98;;
24084;SDS011;12268;52.110;5.548;2022-12-18T16:51:26;20.92;;;11.55;;